• Join FlightAware (Why Join?)
  • Login
  • US Flag 
07:00AM EDT


 

Airport Tracker/Info


-or-


 

Live Flight TrackerFlight Track Log ✈ GGN7321 ✈ 08-Apr-2013 ✈ CYHZ - CYQM

Flight Track Log - Related Links

Times and Time Zones

All times are in EDT time to prevent confusion due to time zone crossing. See the GGN7321 flight status page for this flight to view local times or setup timezone preferences in your user account.

Time Position Orientation Groundspeed Altitude Reporting Facility
EDT Latitude Longitude Course Direction KTS MPH feet Rate Location/Type
09:21PM 44.8833 -63.5167 327° Northwest 140 161 1,700  Level Moncton Center
09:22PM 44.9167 -63.5500 325° Northwest 130 150 3,900 1,860 Climbing Moncton Center
09:23PM 44.9500 -63.5667 341° North 150 173 5,500 1,500 Climbing Moncton Center
09:24PM 44.9833 -63.6167 313° West 160 184 6,900 1,380 Climbing Moncton Center
09:25PM 45.0333 -63.6333 347° North 170 196 8,300 1,500 Climbing Moncton Center
09:26PM 45.0667 -63.6833 313° West 180 207 9,900 1,560 Climbing Moncton Center
09:27PM 45.1263 -63.7411 327° Northwest  Level FlightAware Approximate
09:27PM 45.1167 -63.7167 335° Northwest 180 207 11,500  Level Moncton Center
09:28PM 45.1667 -63.7500 335° Northwest 190 219 11,900 180 Climbing Moncton Center
09:29PM 45.2167 -63.7833 335° Northwest 220 253 11,900  Level Moncton Center
09:30PM 45.2833 -63.8333 332° Northwest 230 265 11,900  Level Moncton Center
09:31PM 45.3333 -63.8667 335° Northwest 240 276 11,900  Level Moncton Center
09:32PM 45.3833 -63.9167 325° Northwest 240 276 11,900  Level Moncton Center
09:33PM 45.4500 -63.9667 332° Northwest 240 276 11,900  Level Moncton Center
09:34PM 45.5000 -64.0167 325° Northwest 240 276 11,900  Level Moncton Center
09:35PM 45.5500 -64.0667 325° Northwest 230 265 12,000  Climbing Moncton Center
09:36PM 45.6167 -64.1167 332° Northwest 230 265 12,000 -360 Level Moncton Center
09:37PM 45.6500 -64.1833 306° West 240 276 11,300 -900 Descending Moncton Center
09:38PM 45.7000 -64.2833 306° West 250 288 10,200 -1,080 Descending Moncton Center
09:39PM 45.7333 -64.3500 306° West 250 288 9,200 -1,320 Descending Moncton Center
09:40PM 45.7667 -64.4167 306° West 240 276 7,600 -1,500 Descending Moncton Center
09:41PM 45.8167 -64.5167 306° West 240 276 6,300 -1,020 Descending Moncton Center
09:42PM 45.8500 -64.5833 306° West 220 253 5,600 -840 Descending Moncton Center
09:43PM 45.8833 -64.6667 300° West 220 253 4,700 -840 Descending Moncton Center
09:44PM 45.9167 -64.7333 306° West 220 253 4,000 -660 Descending Moncton Center
09:45PM 45.9500 -64.8000 306° West 220 253 3,400 -360 Descending Moncton Center
09:46PM 45.9833 -64.8333 325° Northwest 200 230 3,300 -540 Descending Moncton Center
09:47PM 46.0167 -64.7833 46° Northeast 170 196 2,400 -900 Descending Moncton Center
09:48PM 46.0500 -64.7667 19° North 150 173 1,600 -780 Descending Moncton Center
09:49PM 46.0833 -64.7167 46° Northeast 130 150 900 -720 Descending Moncton Center
09:50PM 46.1000 -64.6833 54° Northeast 130 150 200 -360 Descending Moncton Center
09:51PM 46.1167 -64.6667 35° Northeast 50 58 200  Level Moncton Center